Armutova, Turkey
Current Conditions -  °F | °C
As of 10:50 PM on Thursday 18 Dec 2014 (Local Time) from LTFD Reporting Station
Scattered Clouds Scattered Clouds  
Wind Chill: 50°   Ceiling: Unl
Heat Index: 50°   Visibility: 6mi
Dew Point: 45°   Wind: 8mph
Humidity: 82%   Direction: 70°ENE
Pressure: 30.06"   Gusts: NA
Location:  39.39°N, 26.84°E
Report Text: LTFD 181950Z 07007KT 9999 FEW035 SCT100 10/07 Q1018
Loading
Personal Weather Stations






























Interactive Weather Map New forecast layout! Learn more

10-Day Weather Forecast

Advertisements
Track Severe Weather on mobile